createdAt,value
2023-05-04T00:00:08.257Z,20.50
2023-05-04T00:02:35.042Z,20.49
2023-05-04T00:05:01.790Z,20.49
2023-05-04T00:07:28.366Z,20.49
2023-05-04T00:09:54.914Z,20.49
2023-05-04T00:12:21.448Z,20.49
2023-05-04T00:14:47.964Z,20.50
2023-05-04T00:17:14.565Z,20.49
2023-05-04T00:19:42.343Z,20.49
2023-05-04T00:22:09.168Z,20.49
2023-05-04T00:24:35.991Z,20.49
2023-05-04T00:27:02.490Z,20.49
2023-05-04T00:29:29.664Z,20.49
2023-05-04T00:31:56.649Z,20.49
2023-05-04T00:34:23.662Z,20.50
2023-05-04T00:36:50.230Z,20.49
2023-05-04T00:39:16.795Z,20.50
2023-05-04T00:41:44.511Z,20.50
2023-05-04T00:44:11.237Z,20.50
2023-05-04T00:46:37.953Z,20.50
2023-05-04T00:49:04.538Z,20.50
2023-05-04T00:51:31.213Z,20.50
2023-05-04T00:53:58.110Z,20.49
2023-05-04T00:56:24.903Z,20.50
2023-05-04T00:58:54.695Z,20.50
2023-05-04T01:01:22.300Z,20.51
2023-05-04T01:03:50.131Z,20.48
2023-05-04T01:06:23.271Z,20.50
2023-05-04T01:09:01.588Z,20.50
2023-05-04T01:11:37.189Z,20.50
2023-05-04T01:14:03.729Z,20.50
2023-05-04T01:16:30.266Z,20.50
2023-05-04T01:18:56.871Z,20.50
2023-05-04T01:21:23.415Z,20.49
2023-05-04T01:23:50.588Z,20.37
2023-05-04T01:26:24.816Z,20.48
2023-05-04T01:29:00.624Z,20.48
2023-05-04T01:31:27.296Z,20.49
2023-05-04T01:33:54.235Z,20.49
2023-05-04T01:36:21.230Z,20.47
2023-05-04T01:38:48.910Z,20.47
2023-05-04T01:41:15.432Z,20.47
2023-05-04T01:43:42.504Z,20.48
2023-05-04T01:46:09.058Z,20.48
2023-05-04T01:48:35.661Z,20.47
2023-05-04T01:51:02.223Z,20.47
2023-05-04T01:53:28.706Z,20.48
2023-05-04T01:55:55.285Z,20.48
2023-05-04T01:58:21.811Z,20.47
2023-05-04T02:00:48.336Z,20.48
2023-05-04T02:03:14.943Z,20.48
2023-05-04T02:05:41.663Z,20.49
2023-05-04T02:08:08.227Z,20.48
2023-05-04T02:10:34.932Z,20.47
2023-05-04T02:13:01.513Z,20.47
2023-05-04T02:15:28.180Z,20.47
2023-05-04T02:17:55.278Z,20.47
2023-05-04T02:20:21.818Z,20.46
2023-05-04T02:22:48.361Z,20.45
2023-05-04T02:25:14.951Z,20.46
2023-05-04T02:27:41.466Z,20.45
2023-05-04T02:30:09.221Z,20.45
2023-05-04T02:32:36.472Z,20.44
2023-05-04T02:35:03.145Z,20.44
2023-05-04T02:37:29.692Z,20.43
2023-05-04T02:39:56.235Z,20.42
2023-05-04T02:42:22.960Z,20.43
2023-05-04T02:44:49.515Z,20.43
2023-05-04T02:47:15.995Z,20.43
2023-05-04T02:49:42.562Z,20.43
2023-05-04T02:52:09.133Z,20.42
2023-05-04T02:54:35.715Z,20.38
2023-05-04T02:57:02.272Z,20.43
2023-05-04T02:59:28.775Z,20.43
2023-05-04T03:01:55.621Z,20.44
2023-05-04T03:04:22.185Z,20.45
2023-05-04T03:06:48.722Z,20.46
2023-05-04T03:09:15.240Z,20.44
2023-05-04T03:11:41.796Z,20.47
2023-05-04T03:14:08.333Z,20.18
2023-05-04T03:16:35.030Z,20.47
2023-05-04T03:19:01.685Z,20.47
2023-05-04T03:21:28.319Z,20.48
2023-05-04T03:23:54.851Z,20.48
2023-05-04T03:26:21.553Z,20.49
2023-05-04T03:28:48.121Z,20.50
2023-05-04T03:31:14.744Z,20.50
2023-05-04T03:33:41.549Z,20.51
2023-05-04T03:36:09.237Z,20.52
2023-05-04T03:38:35.755Z,20.53
2023-05-04T03:41:02.535Z,20.53
2023-05-04T03:43:29.038Z,20.53
2023-05-04T03:45:55.629Z,20.54
2023-05-04T03:48:22.139Z,20.52
2023-05-04T03:50:48.658Z,20.55
2023-05-04T03:53:15.262Z,20.55
2023-05-04T03:55:41.877Z,20.55
2023-05-04T03:58:08.400Z,20.54
2023-05-04T04:00:35.151Z,20.55
2023-05-04T04:03:02.152Z,20.55
2023-05-04T04:05:28.955Z,20.55
2023-05-04T04:07:55.481Z,20.54
2023-05-04T04:10:22.713Z,20.54
2023-05-04T04:12:49.882Z,20.55
2023-05-04T04:15:16.522Z,20.54
2023-05-04T04:17:43.105Z,20.55
2023-05-04T04:20:10.209Z,20.54
2023-05-04T04:22:36.789Z,20.54
2023-05-04T04:25:03.436Z,20.54
2023-05-04T04:27:29.974Z,19.72
2023-05-04T04:29:56.955Z,20.54
2023-05-04T04:32:23.502Z,20.34
2023-05-04T04:34:50.030Z,20.54
2023-05-04T04:37:16.612Z,20.55
2023-05-04T04:39:43.190Z,20.55
2023-05-04T04:42:09.759Z,20.54
2023-05-04T04:44:36.504Z,20.55
2023-05-04T04:47:03.150Z,20.52
2023-05-04T04:49:29.806Z,20.53
2023-05-04T04:51:56.836Z,20.55
2023-05-04T04:54:23.440Z,20.41
2023-05-04T04:56:49.965Z,20.53
2023-05-04T04:59:17.350Z,20.55
2023-05-04T05:01:43.923Z,20.55
2023-05-04T05:04:10.492Z,20.54
2023-05-04T05:06:37.074Z,20.55
2023-05-04T05:09:03.682Z,20.53
2023-05-04T05:11:30.217Z,20.53
2023-05-04T05:13:56.777Z,20.55
2023-05-04T05:16:23.782Z,20.47
2023-05-04T05:18:50.345Z,20.56
2023-05-04T05:21:16.915Z,20.55
2023-05-04T05:23:43.454Z,20.56
2023-05-04T05:26:09.983Z,20.56
2023-05-04T05:28:37.202Z,20.56
2023-05-04T05:31:03.922Z,20.57
2023-05-04T05:33:30.448Z,20.57
2023-05-04T05:35:56.970Z,20.58
2023-05-04T05:38:23.605Z,20.57
2023-05-04T05:40:50.165Z,20.56
2023-05-04T05:43:16.674Z,20.55
2023-05-04T05:45:43.227Z,20.54
2023-05-04T05:48:09.837Z,20.54
2023-05-04T05:50:36.333Z,20.53
2023-05-04T05:53:02.866Z,20.50
2023-05-04T05:55:29.419Z,20.50
2023-05-04T05:57:55.990Z,20.49
2023-05-04T06:00:22.529Z,20.49
2023-05-04T06:02:49.249Z,20.47
2023-05-04T06:05:15.879Z,20.49
2023-05-04T06:07:42.537Z,20.37
2023-05-04T06:10:09.560Z,20.49
2023-05-04T06:12:36.335Z,20.48
2023-05-04T06:15:02.949Z,20.47
2023-05-04T06:17:29.548Z,20.50
2023-05-04T06:19:56.394Z,20.49
2023-05-04T06:22:22.966Z,20.48
2023-05-04T06:24:49.765Z,20.47
2023-05-04T06:27:16.478Z,20.48
2023-05-04T06:29:43.013Z,20.46
2023-05-04T06:32:12.798Z,20.46
2023-05-04T06:34:39.447Z,20.46
2023-05-04T06:37:06.004Z,20.46
2023-05-04T06:39:32.942Z,20.47
2023-05-04T06:41:59.701Z,20.46
2023-05-04T06:44:26.301Z,20.48
2023-05-04T06:46:53.864Z,20.49
2023-05-04T06:49:20.479Z,20.49
2023-05-04T06:51:46.970Z,20.49
2023-05-04T06:54:13.547Z,20.50
2023-05-04T06:56:40.444Z,20.50
2023-05-04T06:59:08.161Z,20.50
2023-05-04T07:01:34.768Z,20.50
2023-05-04T07:04:01.567Z,20.52
2023-05-04T07:06:29.461Z,20.52
2023-05-04T07:08:56.414Z,20.53
2023-05-04T07:11:23.502Z,20.47
2023-05-04T07:13:50.418Z,20.54
2023-05-04T07:16:16.995Z,20.54
2023-05-04T07:18:43.559Z,20.55
2023-05-04T07:21:27.033Z,20.56
2023-05-04T07:23:55.463Z,20.57
2023-05-04T07:26:22.726Z,20.56
2023-05-04T07:28:49.257Z,20.56
2023-05-04T07:31:15.986Z,20.59
2023-05-04T07:33:42.648Z,20.58
2023-05-04T07:36:09.291Z,20.51
2023-05-04T07:38:36.265Z,20.59
2023-05-04T07:41:02.974Z,20.59
2023-05-04T07:43:29.517Z,20.59
2023-05-04T07:45:56.052Z,20.59
2023-05-04T07:48:24.614Z,20.59
2023-05-04T07:50:52.761Z,20.59
2023-05-04T07:53:20.761Z,20.58
2023-05-04T07:55:47.930Z,20.60
2023-05-04T07:58:15.566Z,20.60
2023-05-04T08:00:42.236Z,20.59
2023-05-04T08:03:08.758Z,20.59
2023-05-04T08:05:35.357Z,20.60
2023-05-04T08:08:01.905Z,20.61
2023-05-04T08:10:29.169Z,20.62
2023-05-04T08:12:55.730Z,20.61
2023-05-04T08:15:22.305Z,20.61
2023-05-04T08:17:48.953Z,20.63
2023-05-04T08:20:16.712Z,20.61
2023-05-04T08:22:43.296Z,20.62
2023-05-04T08:25:10.051Z,20.54
2023-05-04T08:27:36.636Z,20.62
2023-05-04T08:30:03.453Z,20.58
2023-05-04T08:32:31.843Z,20.62
2023-05-04T08:34:59.706Z,20.57
2023-05-04T08:37:26.454Z,20.63
2023-05-04T08:39:53.126Z,20.62
2023-05-04T08:42:32.767Z,20.63
2023-05-04T08:44:59.446Z,20.62
2023-05-04T08:47:26.572Z,20.61
2023-05-04T08:49:54.187Z,20.63
2023-05-04T08:52:22.565Z,20.62
2023-05-04T08:54:49.076Z,20.59
2023-05-04T08:57:15.742Z,20.58
2023-05-04T08:59:42.701Z,20.63
2023-05-04T09:02:09.555Z,20.64
2023-05-04T09:04:36.249Z,20.62
2023-05-04T09:07:03.412Z,20.64
2023-05-04T09:09:31.692Z,20.64
2023-05-04T09:11:59.060Z,20.66
2023-05-04T09:14:32.421Z,20.64
2023-05-04T09:16:59.082Z,20.62
2023-05-04T09:19:33.185Z,20.56
2023-05-04T09:22:01.087Z,20.65
2023-05-04T09:24:28.480Z,20.65
2023-05-04T09:26:54.988Z,20.65
2023-05-04T09:29:23.920Z,20.65
2023-05-04T09:31:51.131Z,20.63
2023-05-04T09:34:20.259Z,20.62
2023-05-04T09:36:58.664Z,20.61
2023-05-04T09:39:25.436Z,20.58
2023-05-04T09:41:51.973Z,20.66
2023-05-04T09:44:19.602Z,20.66
2023-05-04T09:46:58.873Z,20.65
2023-05-04T09:49:35.234Z,20.61
2023-05-04T09:52:02.858Z,20.66
2023-05-04T09:54:32.452Z,20.66
2023-05-04T09:57:04.995Z,20.60
2023-05-04T09:59:34.241Z,20.66
2023-05-04T10:02:10.584Z,20.65
2023-05-04T10:04:45.100Z,20.63
2023-05-04T10:07:11.613Z,20.66
2023-05-04T10:09:38.162Z,20.62
2023-05-04T10:12:05.402Z,20.66
2023-05-04T10:14:35.063Z,20.66
2023-05-04T10:17:13.900Z,20.66
2023-05-04T10:19:58.613Z,20.66
2023-05-04T10:22:37.123Z,20.67
2023-05-04T10:25:07.374Z,20.66
2023-05-04T10:27:54.481Z,20.67
2023-05-04T10:30:21.217Z,20.68
2023-05-04T10:32:55.207Z,20.66
2023-05-04T10:35:21.923Z,20.67
2023-05-04T10:37:54.484Z,20.65
2023-05-04T10:40:41.968Z,20.66
2023-05-04T10:43:08.647Z,20.67
2023-05-04T10:45:38.750Z,20.66
2023-05-04T10:48:06.122Z,20.66
2023-05-04T10:50:43.627Z,20.66
2023-05-04T10:53:10.277Z,20.67
2023-05-04T10:55:41.637Z,20.67
2023-05-04T10:58:08.489Z,20.63
2023-05-04T11:00:38.263Z,20.67
2023-05-04T11:03:05.660Z,20.68
2023-05-04T11:05:45.594Z,20.65
2023-05-04T11:08:19.451Z,20.68
2023-05-04T11:10:47.291Z,20.68
2023-05-04T11:13:14.134Z,20.68
2023-05-04T11:15:47.544Z,20.68
2023-05-04T11:18:14.477Z,20.65
2023-05-04T11:20:42.468Z,20.69
2023-05-04T11:23:10.352Z,20.61
2023-05-04T11:25:37.637Z,20.70
2023-05-04T11:28:04.455Z,20.69
2023-05-04T11:30:33.249Z,20.70
2023-05-04T11:33:00.572Z,20.69
2023-05-04T11:35:27.302Z,20.69
2023-05-04T11:37:54.418Z,20.69
2023-05-04T11:40:24.620Z,20.69
2023-05-04T11:42:52.417Z,20.67
2023-05-04T11:45:19.658Z,20.70
2023-05-04T11:47:46.530Z,20.69
2023-05-04T11:50:14.122Z,20.71
2023-05-04T11:52:41.542Z,20.70
2023-05-04T11:55:12.678Z,20.69
2023-05-04T11:57:39.765Z,20.69
2023-05-04T12:00:09.748Z,20.72
2023-05-04T12:02:36.466Z,20.71
2023-05-04T12:05:03.406Z,20.72
2023-05-04T12:07:30.073Z,20.72
2023-05-04T12:09:56.878Z,20.74
2023-05-04T12:12:23.590Z,20.74
2023-05-04T12:14:53.616Z,20.75
2023-05-04T12:17:20.620Z,20.76
2023-05-04T12:19:54.729Z,20.68
2023-05-04T12:22:32.878Z,20.77
2023-05-04T12:24:59.840Z,20.77
2023-05-04T12:27:26.666Z,20.77
2023-05-04T12:29:53.258Z,20.76
2023-05-04T12:32:19.819Z,20.75
